Time;durP1;ratioP1;P1;durP2;ratioP2;P2;SDS_P1;SDS_P2;PMS_P1;PMS_P2;Temp;Humidity;BMP_temperature;BMP_pressure;BME280_temperature;BME280_humidity;BME280_pressure;Samples;Min_cycle;Max_cycle;Signal;HPM_P1;HPM_P2
2022/04/03 00:00:06;;;;;;;12.15;8.98;;;28.90;78.50;;;;;;5125202;28;20028;-49
2022/04/03 00:02:33;;;;;;;10.23;9.10;;;28.90;78.90;;;;;;5125703;28;20026;-53
2022/04/03 00:05:00;;;;;;;13.25;8.50;;;28.80;79.30;;;;;;5126081;28;20023;-52
2022/04/03 00:07:26;;;;;;;13.32;9.07;;;28.80;79.80;;;;;;5125730;28;20082;-53
2022/04/03 00:09:53;;;;;;;12.13;9.60;;;28.80;80.20;;;;;;5124435;28;20087;-52
2022/04/03 00:12:20;;;;;;;10.43;9.10;;;28.80;80.50;;;;;;5125412;28;20023;-53
2022/04/03 00:14:46;;;;;;;13.73;8.82;;;28.80;80.70;;;;;;5125826;28;20023;-53
2022/04/03 00:17:13;;;;;;;10.95;8.60;;;28.80;80.90;;;;;;5125913;28;20019;-52
2022/04/03 00:19:40;;;;;;;14.27;9.00;;;28.80;81.00;;;;;;5125573;28;20034;-49
2022/04/03 00:22:06;;;;;;;16.13;9.30;;;28.80;81.30;;;;;;5125805;28;20028;-53
2022/04/03 00:24:33;;;;;;;16.98;9.00;;;28.70;81.40;;;;;;5125777;28;20028;-51
2022/04/03 00:26:59;;;;;;;15.43;9.43;;;28.70;81.50;;;;;;5125647;28;20060;-52
2022/04/03 00:29:26;;;;;;;21.20;9.73;;;28.70;81.70;;;;;;5125623;28;20011;-52
2022/04/03 00:31:53;;;;;;;19.65;9.70;;;28.70;81.70;;;;;;5125689;28;20030;-52
2022/04/03 00:34:19;;;;;;;13.38;9.15;;;28.70;81.70;;;;;;5125355;28;20100;-53
2022/04/03 00:36:46;;;;;;;17.25;8.88;;;28.70;81.50;;;;;;5125770;28;20049;-55
2022/04/03 00:39:12;;;;;;;13.13;9.32;;;28.70;81.60;;;;;;5125396;28;20019;-50
2022/04/03 00:41:40;;;;;;;16.70;9.75;;;28.70;81.70;;;;;;5125086;28;20051;-55
2022/04/03 00:44:07;;;;;;;14.23;8.60;;;28.70;81.70;;;;;;5125422;28;20216;-54
2022/04/03 00:46:36;;;;;;;11.88;9.63;;;28.70;81.80;;;;;;5125344;28;20036;-53
2022/04/03 00:49:03;;;;;;;13.20;9.70;;;28.70;81.80;;;;;;5124782;28;20044;-54
2022/04/03 00:51:30;;;;;;;15.55;9.52;;;28.70;81.80;;;;;;5125195;28;20058;-53
2022/04/03 00:53:57;;;;;;;14.93;9.38;;;28.70;81.80;;;;;;5124686;28;20262;-56
2022/04/03 00:56:24;;;;;;;14.30;9.18;;;28.60;81.90;;;;;;5124713;28;20016;-55
2022/04/03 00:58:51;;;;;;;14.18;9.45;;;28.60;81.90;;;;;;5125110;28;20094;-54
2022/04/03 01:01:19;;;;;;;12.63;9.25;;;28.60;81.90;;;;;;5124899;28;20212;-54
2022/04/03 01:03:46;;;;;;;11.05;9.57;;;28.60;81.80;;;;;;5124869;28;20019;-53
2022/04/03 01:06:12;;;;;;;16.95;9.40;;;28.60;81.80;;;;;;5125157;28;20196;-54
2022/04/03 01:08:39;;;;;;;11.52;8.98;;;28.60;81.70;;;;;;5124909;28;20032;-57
2022/04/03 01:11:05;;;;;;;12.68;9.48;;;28.60;81.50;;;;;;5124751;28;20016;-54
2022/04/03 01:13:32;;;;;;;13.05;10.38;;;28.60;81.60;;;;;;5125342;28;20008;-57
2022/04/03 01:16:02;;;;;;;12.63;9.32;;;28.60;81.60;;;;;;5124752;28;20030;-57
2022/04/03 01:18:29;;;;;;;13.32;9.50;;;28.50;81.40;;;;;;5125020;28;20023;-53
2022/04/03 01:20:56;;;;;;;10.43;8.73;;;28.50;81.30;;;;;;5124653;28;20292;-55
2022/04/03 01:23:25;;;;;;;14.95;9.50;;;28.50;81.40;;;;;;5125104;28;20254;-52
2022/04/03 01:25:51;;;;;;;12.10;9.07;;;28.50;81.30;;;;;;5124416;28;20085;-56
2022/04/03 01:28:18;;;;;;;13.15;8.90;;;28.50;81.10;;;;;;5125097;28;20012;-56
2022/04/03 01:30:45;;;;;;;11.40;8.85;;;28.50;81.00;;;;;;5124530;28;20028;-54
2022/04/03 01:33:11;;;;;;;10.80;9.10;;;28.50;80.80;;;;;;5124889;28;20019;-55
2022/04/03 01:35:38;;;;;;;21.15;13.48;;;28.50;80.70;;;;;;5124548;28;20077;-53
2022/04/03 01:38:05;;;;;;;19.30;12.15;;;28.50;80.80;;;;;;5124665;28;20057;-52
2022/04/03 01:40:34;;;;;;;18.55;11.23;;;28.50;81.00;;;;;;5124297;28;20028;-54
2022/04/03 01:43:06;;;;;;;19.73;13.60;;;28.50;80.90;;;;;;5124651;28;20027;-52
2022/04/03 01:45:34;;;;;;;30.10;14.27;;;28.40;81.00;;;;;;5124315;28;20023;-53
2022/04/03 01:48:01;;;;;;;25.92;12.55;;;28.40;81.10;;;;;;5124529;28;20019;-53
2022/04/03 01:50:28;;;;;;;27.98;15.50;;;28.30;81.00;;;;;;5124069;28;20063;-54
2022/04/03 01:52:54;;;;;;;22.25;13.60;;;28.40;80.80;;;;;;5124650;28;20050;-58
2022/04/03 01:55:23;;;;;;;24.10;15.13;;;28.40;80.70;;;;;;5124164;28;20065;-53
2022/04/03 01:57:49;;;;;;;20.27;13.10;;;28.40;80.40;;;;;;5124540;28;20355;-58
2022/04/03 02:00:16;;;;;;;17.23;11.20;;;28.30;80.20;;;;;;5124231;28;20027;-55
2022/04/03 02:02:43;;;;;;;14.32;10.45;;;28.30;79.70;;;;;;5124230;28;20020;-53
2022/04/03 02:05:10;;;;;;;19.35;11.70;;;28.30;79.50;;;;;;5124501;28;20027;-54
2022/04/03 02:07:36;;;;;;;25.33;15.13;;;28.30;79.20;;;;;;5128614;28;20046;-50
2022/04/03 02:10:09;;;;;;;20.63;14.55;;;28.30;79.00;;;;;;5128175;28;20016;-48
2022/04/03 02:12:44;;;;;;;16.52;12.32;;;28.30;79.20;;;;;;5128460;28;20094;-54
2022/04/03 02:15:11;;;;;;;16.67;11.55;;;28.30;79.10;;;;;;5128143;28;20275;-56
2022/04/03 02:17:41;;;;;;;17.95;10.63;;;28.20;79.00;;;;;;5128426;28;20034;-54
2022/04/03 02:20:09;;;;;;;17.58;10.15;;;28.20;79.10;;;;;;5128014;28;20086;-52
2022/04/03 02:22:36;;;;;;;20.58;12.15;;;28.20;79.30;;;;;;5128066;28;20080;-50
2022/04/03 02:25:04;;;;;;;25.65;12.48;;;28.20;79.40;;;;;;5127999;28;20193;-54
2022/04/03 02:27:31;;;;;;;20.30;11.20;;;28.20;79.40;;;;;;5128191;28;20030;-58
2022/04/03 02:29:57;;;;;;;18.25;9.95;;;28.20;79.40;;;;;;5127681;28;20019;-50
2022/04/03 02:32:25;;;;;;;15.50;9.35;;;28.20;79.30;;;;;;5128044;28;20025;-46
2022/04/03 02:34:52;;;;;;;12.50;8.25;;;28.20;79.20;;;;;;5127818;28;20020;-49
2022/04/03 02:37:18;;;;;;;12.48;7.85;;;28.20;79.10;;;;;;5127755;28;20181;-52
2022/04/03 02:39:45;;;;;;;13.82;8.30;;;28.10;78.90;;;;;;5127841;28;20062;-49
2022/04/03 02:42:12;;;;;;;14.23;8.55;;;28.10;79.00;;;;;;5127901;28;20026;-48
2022/04/03 02:44:39;;;;;;;11.35;7.85;;;28.10;78.80;;;;;;5127513;28;20020;-51
2022/04/03 02:47:05;;;;;;;12.43;7.38;;;28.10;78.70;;;;;;5127736;28;20059;-50
2022/04/03 02:49:32;;;;;;;13.73;7.57;;;28.10;78.10;;;;;;5127391;28;20291;-51
2022/04/03 02:51:58;;;;;;;11.55;6.80;;;28.10;77.80;;;;;;5127612;28;20030;-50
2022/04/03 02:54:25;;;;;;;10.20;6.97;;;28.00;77.30;;;;;;5127658;28;20027;-48
2022/04/03 02:56:52;;;;;;;11.60;7.40;;;28.10;76.50;;;;;;5127518;28;20047;-52
2022/04/03 02:59:18;;;;;;;9.32;6.90;;;28.10;75.80;;;;;;5127351;28;20031;-48
2022/04/03 03:01:46;;;;;;;12.40;7.30;;;28.10;75.60;;;;;;5127213;28;20028;-48
2022/04/03 03:04:14;;;;;;;9.30;6.80;;;28.10;75.40;;;;;;5127119;28;20362;-52
2022/04/03 03:06:41;;;;;;;9.68;6.63;;;28.00;75.60;;;;;;5127256;28;20116;-49
2022/04/03 03:09:08;;;;;;;8.73;6.68;;;28.10;75.60;;;;;;5127075;28;20016;-56
2022/04/03 03:11:34;;;;;;;9.88;7.18;;;28.00;75.80;;;;;;5127143;28;20242;-52
2022/04/03 03:14:01;;;;;;;10.90;6.50;;;28.00;75.40;;;;;;5127228;28;20020;-52
2022/04/03 03:16:27;;;;;;;8.13;7.00;;;28.00;75.30;;;;;;5126861;28;20060;-55
2022/04/03 03:18:54;;;;;;;13.40;7.57;;;28.10;75.50;;;;;;5126321;28;20020;-55
2022/04/03 03:21:21;;;;;;;10.52;6.90;;;28.00;75.40;;;;;;5126988;28;20020;-54
2022/04/03 03:23:47;;;;;;;10.90;6.95;;;28.00;75.40;;;;;;5126968;28;20292;-52
2022/04/03 03:26:14;;;;;;;11.40;7.30;;;28.00;75.30;;;;;;5126911;28;20092;-57
2022/04/03 03:28:40;;;;;;;8.85;7.35;;;28.00;75.10;;;;;;5126980;28;20046;-54
2022/04/03 03:31:07;;;;;;;10.45;6.78;;;28.00;75.00;;;;;;5126662;28;20035;-51
2022/04/03 03:33:34;;;;;;;9.27;6.70;;;28.00;74.90;;;;;;5127281;28;20243;-52
2022/04/03 03:36:01;;;;;;;9.80;6.88;;;28.00;75.30;;;;;;5126648;28;20043;-50
2022/04/03 03:38:27;;;;;;;10.02;7.32;;;27.90;74.70;;;;;;5126845;28;20136;-53
2022/04/03 03:40:54;;;;;;;8.55;6.68;;;28.00;74.40;;;;;;5126946;28;20108;-53
2022/04/03 03:43:21;;;;;;;8.95;6.85;;;27.90;74.20;;;;;;5126966;28;20076;-54
2022/04/03 03:45:48;;;;;;;9.65;6.68;;;27.90;74.10;;;;;;5126280;28;20020;-55
2022/04/03 03:48:14;;;;;;;10.20;6.82;;;27.90;74.00;;;;;;5127135;28;20204;-51
2022/04/03 03:50:41;;;;;;;9.98;6.57;;;27.90;73.90;;;;;;5126341;28;20105;-55
2022/04/03 03:53:07;;;;;;;13.02;6.80;;;27.90;73.90;;;;;;5126577;28;20023;-54
2022/04/03 03:55:34;;;;;;;9.35;6.45;;;27.90;73.60;;;;;;5126364;28;20086;-51
2022/04/03 03:58:00;;;;;;;10.52;6.07;;;27.90;73.90;;;;;;5126880;28;20047;-57
2022/04/03 04:00:27;;;;;;;7.68;6.38;;;27.90;73.60;;;;;;5126190;28;20023;-50
2022/04/03 04:02:56;;;;;;;10.95;6.78;;;27.90;73.80;;;;;;5126541;28;20031;-53
2022/04/03 04:05:23;;;;;;;11.38;7.05;;;27.90;73.50;;;;;;5126181;28;20024;-48
2022/04/03 04:07:49;;;;;;;11.52;6.50;;;27.90;73.90;;;;;;5126330;28;20026;-55
2022/04/03 04:10:17;;;;;;;11.63;6.95;;;27.90;73.80;;;;;;5126120;28;20024;-51
2022/04/03 04:12:46;;;;;;;10.65;6.70;;;27.90;73.80;;;;;;5126207;28;20086;-51
2022/04/03 04:15:14;;;;;;;10.32;6.63;;;27.90;73.50;;;;;;5125833;28;20035;-52
2022/04/03 04:17:44;;;;;;;7.53;6.45;;;27.90;73.60;;;;;;5125810;28;20212;-59
2022/04/03 04:20:16;;;;;;;9.30;6.22;;;27.90;73.70;;;;;;5125879;28;20023;-52
2022/04/03 04:22:45;;;;;;;7.50;6.63;;;27.80;73.50;;;;;;5125914;28;20030;-50
2022/04/03 04:25:16;;;;;;;9.93;6.70;;;27.90;73.60;;;;;;5125817;28;20024;-52
2022/04/03 04:27:44;;;;;;;10.52;7.10;;;27.90;73.70;;;;;;5126070;28;20026;-50
2022/04/03 04:30:11;;;;;;;11.23;6.90;;;27.80;73.50;;;;;;5124413;28;20092;-49
2022/04/03 04:32:38;;;;;;;8.98;6.80;;;27.80;73.30;;;;;;5125887;28;20238;-50
2022/04/03 04:35:05;;;;;;;9.05;6.82;;;27.80;73.50;;;;;;5125474;28;20216;-53
2022/04/03 04:37:33;;;;;;;7.60;6.45;;;27.80;73.60;;;;;;5125591;28;20022;-50
2022/04/03 04:40:00;;;;;;;9.20;6.53;;;27.80;73.40;;;;;;5125722;28;20024;-50
2022/04/03 04:42:28;;;;;;;9.23;6.20;;;27.80;73.40;;;;;;5125485;28;20027;-53
2022/04/03 04:44:54;;;;;;;8.70;6.80;;;27.90;73.70;;;;;;5125232;28;20089;-52
2022/04/03 04:47:21;;;;;;;8.93;6.60;;;27.80;73.60;;;;;;5125615;28;20024;-51
2022/04/03 04:49:48;;;;;;;11.45;6.78;;;27.90;73.50;;;;;;5125065;28;20354;-54
2022/04/03 04:52:14;;;;;;;8.15;6.25;;;27.80;73.60;;;;;;5125183;28;20068;-47
2022/04/03 04:54:41;;;;;;;7.78;6.78;;;27.80;73.60;;;;;;5125203;28;20019;-51
2022/04/03 04:57:07;;;;;;;10.20;6.68;;;27.80;73.60;;;;;;5125352;28;20351;-54
2022/04/03 04:59:34;;;;;;;10.20;6.82;;;27.80;73.60;;;;;;5125001;28;20094;-53
2022/04/03 05:02:01;;;;;;;12.73;7.10;;;27.80;73.80;;;;;;5125161;28;20031;-53
2022/04/03 05:04:27;;;;;;;9.52;6.97;;;27.80;73.80;;;;;;5125010;28;20019;-53
2022/04/03 05:06:55;;;;;;;13.60;7.82;;;27.80;73.50;;;;;;5124971;28;20176;-51
2022/04/03 05:09:22;;;;;;;9.52;7.90;;;27.80;73.50;;;;;;5125011;28;20056;-51
2022/04/03 05:11:49;;;;;;;11.43;8.35;;;27.80;73.30;;;;;;5125014;28;20027;-52
2022/04/03 05:14:16;;;;;;;15.75;10.63;;;27.80;73.40;;;;;;5124269;28;20065;-50
2022/04/03 05:16:43;;;;;;;13.45;9.70;;;27.80;73.60;;;;;;5124755;28;20084;-51
2022/04/03 05:19:13;;;;;;;13.15;9.40;;;27.80;73.50;;;;;;5124876;28;20072;-52
2022/04/03 05:21:41;;;;;;;13.50;7.72;;;27.80;73.50;;;;;;5124638;28;20203;-52
2022/04/03 05:24:07;;;;;;;12.25;7.97;;;27.80;73.40;;;;;;5124635;28;20087;-50
2022/04/03 05:26:34;;;;;;;12.05;8.40;;;27.80;73.00;;;;;;5124693;28;20082;-54
2022/04/03 05:29:01;;;;;;;12.93;7.72;;;27.80;73.20;;;;;;5124504;28;20019;-47
2022/04/03 05:31:28;;;;;;;11.25;7.63;;;27.80;73.20;;;;;;5124510;28;20019;-49
2022/04/03 05:33:55;;;;;;;7.60;6.90;;;27.80;73.20;;;;;;5124428;28;20043;-51
2022/04/03 05:36:22;;;;;;;8.13;7.03;;;27.80;73.20;;;;;;5124296;28;20019;-48
2022/04/03 05:38:49;;;;;;;10.30;6.95;;;27.80;73.70;;;;;;5124459;28;20031;-52
2022/04/03 05:41:15;;;;;;;10.80;7.70;;;27.80;73.20;;;;;;5124020;28;20057;-50
2022/04/03 05:43:42;;;;;;;10.52;7.35;;;27.80;73.10;;;;;;5124263;28;20088;-50
2022/04/03 05:46:10;;;;;;;11.02;6.55;;;27.80;73.00;;;;;;5124675;28;20011;-51
2022/04/03 05:48:37;;;;;;;13.50;6.85;;;27.80;73.00;;;;;;5124760;28;20023;-48
2022/04/03 05:51:03;;;;;;;9.40;6.68;;;27.80;73.10;;;;;;5124286;28;20079;-57
2022/04/03 05:53:30;;;;;;;9.55;6.90;;;27.80;73.20;;;;;;5124864;28;20029;-53
2022/04/03 05:55:57;;;;;;;9.63;7.05;;;27.80;73.30;;;;;;5124272;28;20024;-56
2022/04/03 05:58:24;;;;;;;10.75;6.75;;;27.80;73.10;;;;;;5124688;28;20318;-54
2022/04/03 06:00:50;;;;;;;9.00;6.63;;;27.80;73.20;;;;;;5124221;28;20027;-59
2022/04/03 06:03:17;;;;;;;13.35;6.63;;;27.80;73.30;;;;;;5124678;28;20024;-52
2022/04/03 06:05:44;;;;;;;8.35;6.32;;;27.80;73.40;;;;;;5124043;28;20069;-57
2022/04/03 06:08:11;;;;;;;9.75;6.65;;;27.80;73.20;;;;;;5124579;28;20026;-54
2022/04/03 06:10:38;;;;;;;12.35;6.70;;;27.80;73.30;;;;;;5124092;28;20020;-50
2022/04/03 06:13:09;;;;;;;9.80;6.30;;;27.80;73.10;;;;;;5124478;28;20015;-55
2022/04/03 06:15:38;;;;;;;11.27;6.95;;;27.80;73.20;;;;;;5124193;28;20224;-51
2022/04/03 06:18:09;;;;;;;10.43;7.05;;;27.80;73.30;;;;;;5124016;28;20027;-52
2022/04/03 06:20:36;;;;;;;9.43;7.28;;;27.80;73.10;;;;;;5123973;28;20035;-53
2022/04/03 06:23:09;;;;;;;9.75;6.95;;;27.80;73.00;;;;;;5124423;28;20312;-59
2022/04/03 06:25:36;;;;;;;9.10;7.00;;;27.70;73.20;;;;;;5124076;28;20015;-57
2022/04/03 06:28:03;;;;;;;10.80;6.78;;;27.70;73.40;;;;;;5124390;28;20068;-53
2022/04/03 06:30:29;;;;;;;10.18;7.47;;;27.70;73.40;;;;;;5124047;28;20026;-53
2022/04/03 06:32:56;;;;;;;10.38;7.80;;;27.70;73.50;;;;;;5124428;28;20031;-52
2022/04/03 06:35:23;;;;;;;9.18;7.80;;;27.70;73.50;;;;;;5123725;28;20031;-48
2022/04/03 06:37:50;;;;;;;11.68;7.60;;;27.70;73.70;;;;;;5124153;28;20251;-51
2022/04/03 06:40:17;;;;;;;10.95;7.55;;;27.70;73.60;;;;;;5123946;28;20020;-52
2022/04/03 06:42:43;;;;;;;10.75;7.28;;;27.70;73.60;;;;;;5123903;28;20307;-55
2022/04/03 06:45:10;;;;;;;9.02;7.60;;;27.70;73.60;;;;;;5123851;28;20023;-52
2022/04/03 06:47:37;;;;;;;12.82;9.32;;;27.70;73.50;;;;;;5124136;28;20292;-51
2022/04/03 06:50:05;;;;;;;16.83;11.63;;;27.70;73.50;;;;;;5123635;28;20223;-52
2022/04/03 06:52:32;;;;;;;18.20;12.98;;;27.70;73.60;;;;;;5124613;28;20050;-48
2022/04/03 06:54:59;;;;;;;17.77;12.80;;;27.70;73.40;;;;;;5127777;28;20308;-51
2022/04/03 06:57:25;;;;;;;14.98;10.82;;;27.70;73.50;;;;;;5127599;28;20026;-52
2022/04/03 06:59:52;;;;;;;14.75;10.70;;;27.70;73.60;;;;;;5127686;28;20034;-50
2022/04/03 07:02:19;;;;;;;19.52;9.77;;;27.70;73.60;;;;;;5127543;28;20019;-51
2022/04/03 07:04:45;;;;;;;13.45;8.70;;;27.70;73.40;;;;;;5127269;28;20162;-58
2022/04/03 07:07:20;;;;;;;10.80;7.93;;;27.70;73.60;;;;;;5127516;28;20016;-52
2022/04/03 07:09:46;;;;;;;12.50;7.80;;;27.70;73.60;;;;;;5127208;28;20019;-50
2022/04/03 07:12:14;;;;;;;9.20;7.53;;;27.70;73.80;;;;;;5127294;28;20020;-52
2022/04/03 07:14:41;;;;;;;10.93;7.90;;;27.70;74.00;;;;;;5127130;28;20215;-52
2022/04/03 07:17:08;;;;;;;9.80;7.43;;;27.70;74.10;;;;;;5127085;28;20023;-51
2022/04/03 07:19:35;;;;;;;12.15;7.65;;;27.70;74.20;;;;;;5126850;28;20039;-53
2022/04/03 07:22:02;;;;;;;13.55;8.40;;;27.70;74.40;;;;;;5126944;28;20086;-53
2022/04/03 07:24:29;;;;;;;14.95;7.95;;;27.60;74.50;;;;;;5126982;28;20024;-53
2022/04/03 07:26:56;;;;;;;9.25;8.18;;;27.60;74.60;;;;;;5126789;28;20019;-48
2022/04/03 07:29:23;;;;;;;10.02;8.35;;;27.60;75.10;;;;;;5126880;28;20324;-53
2022/04/03 07:31:51;;;;;;;10.80;8.63;;;27.70;75.90;;;;;;5127047;28;20023;-53
2022/04/03 07:34:18;;;;;;;9.57;8.57;;;27.60;75.60;;;;;;5126533;28;20215;-57
2022/04/03 07:36:45;;;;;;;11.63;9.27;;;27.60;75.80;;;;;;5126710;28;20081;-52
2022/04/03 07:39:12;;;;;;;10.50;8.25;;;27.60;75.90;;;;;;5126756;28;20219;-52
2022/04/03 07:41:39;;;;;;;9.88;8.82;;;27.60;76.20;;;;;;5126365;28;20016;-52
2022/04/03 07:44:08;;;;;;;10.85;8.93;;;27.60;76.40;;;;;;5126752;28;20049;-51
2022/04/03 07:46:38;;;;;;;11.95;9.13;;;27.60;76.60;;;;;;5126843;28;20024;-51
2022/04/03 07:49:05;;;;;;;13.05;9.70;;;27.60;76.80;;;;;;5126281;28;20039;-55
2022/04/03 07:51:32;;;;;;;10.07;9.18;;;27.60;76.80;;;;;;5126326;28;20023;-55
2022/04/03 07:53:59;;;;;;;10.70;9.60;;;27.60;77.00;;;;;;5126344;28;20024;-54
2022/04/03 07:56:25;;;;;;;11.50;10.25;;;27.60;76.90;;;;;;5126008;28;20308;-55
2022/04/03 07:58:52;;;;;;;13.73;9.93;;;27.50;76.70;;;;;;5126223;28;20261;-51
2022/04/03 08:01:19;;;;;;;13.70;10.05;;;27.60;76.70;;;;;;5126143;28;20019;-52
2022/04/03 08:03:46;;;;;;;10.77;9.70;;;27.50;76.50;;;;;;5125757;28;20023;-53
2022/04/03 08:06:12;;;;;;;12.57;9.98;;;27.50;76.50;;;;;;5126196;28;20007;-53
2022/04/03 08:08:39;;;;;;;13.85;10.65;;;27.50;76.60;;;;;;5126077;28;20064;-49
2022/04/03 08:11:05;;;;;;;11.63;10.45;;;27.50;76.60;;;;;;5125931;28;20012;-52
2022/04/03 08:13:32;;;;;;;15.70;10.57;;;27.50;76.70;;;;;;5126548;28;20173;-52
2022/04/03 08:16:01;;;;;;;12.40;11.10;;;27.50;77.30;;;;;;5125824;28;20023;-55
2022/04/03 08:18:28;;;;;;;14.65;10.27;;;27.50;76.90;;;;;;5125641;28;20024;-52
2022/04/03 08:20:55;;;;;;;12.55;10.65;;;27.50;77.10;;;;;;5126104;28;20065;-57
2022/04/03 08:23:21;;;;;;;14.52;10.38;;;27.50;77.20;;;;;;5126104;28;20040;-52
2022/04/03 08:25:48;;;;;;;13.60;11.02;;;27.50;77.30;;;;;;5125798;28;20078;-54
2022/04/03 08:28:17;;;;;;;13.80;10.43;;;27.40;77.30;;;;;;5126191;28;20200;-51
2022/04/03 08:30:44;;;;;;;14.23;10.60;;;27.50;77.60;;;;;;5125624;28;20323;-52
2022/04/03 08:33:11;;;;;;;13.35;10.43;;;27.40;77.70;;;;;;5125835;28;20035;-52
2022/04/03 08:35:40;;;;;;;12.52;10.35;;;27.40;78.00;;;;;;5125601;28;20087;-56
2022/04/03 08:38:08;;;;;;;12.73;10.45;;;27.40;78.10;;;;;;5125779;28;20051;-51
2022/04/03 08:40:36;;;;;;;12.40;11.05;;;27.40;78.10;;;;;;5125314;28;20027;-55
2022/04/03 08:43:04;;;;;;;11.65;10.35;;;27.40;78.00;;;;;;5125877;28;20024;-54
2022/04/03 08:45:31;;;;;;;12.85;10.60;;;27.40;78.10;;;;;;5125296;28;20049;-52
2022/04/03 08:48:00;;;;;;;19.20;10.73;;;27.40;78.10;;;;;;5125513;28;20027;-52
2022/04/03 08:50:33;;;;;;;12.98;10.55;;;27.40;78.10;;;;;;5125170;28;20327;-55
2022/04/03 08:53:02;;;;;;;13.90;11.13;;;27.40;78.00;;;;;;5125669;28;20046;-55
2022/04/03 08:55:29;;;;;;;11.80;10.45;;;27.40;78.30;;;;;;5125113;28;20027;-54
2022/04/03 08:57:56;;;;;;;15.90;10.65;;;27.40;78.40;;;;;;5125630;28;20023;-55
2022/04/03 09:00:23;;;;;;;12.07;10.60;;;27.40;78.40;;;;;;5125125;28;20019;-50
2022/04/03 09:02:50;;;;;;;15.15;10.95;;;27.40;78.80;;;;;;5125425;28;20070;-52
2022/04/03 09:05:18;;;;;;;14.20;11.25;;;27.40;79.20;;;;;;5125332;28;20028;-52
2022/04/03 09:08:02;;;;;;;14.45;11.10;;;27.40;79.50;;;;;;5125362;28;20011;-51
2022/04/03 09:10:29;;;;;;;16.63;11.23;;;27.30;79.60;;;;;;5124945;28;20047;-54
2022/04/03 09:12:57;;;;;;;13.00;11.60;;;27.40;79.70;;;;;;5125202;28;20023;-55
2022/04/03 09:15:25;;;;;;;13.85;11.80;;;27.30;79.70;;;;;;5124170;28;20028;-52
2022/04/03 09:17:59;;;;;;;13.20;11.82;;;27.30;80.00;;;;;;5125291;28;20091;-54
2022/04/03 09:20:30;;;;;;;13.23;11.88;;;27.30;80.20;;;;;;5124644;28;20023;-54
2022/04/03 09:23:02;;;;;;;13.57;12.30;;;27.30;80.40;;;;;;5124950;28;20031;-49
2022/04/03 09:25:32;;;;;;;13.88;11.93;;;27.30;80.50;;;;;;5124713;28;20019;-49
2022/04/03 09:28:05;;;;;;;14.35;12.23;;;27.30;80.60;;;;;;5124904;28;20016;-57
2022/04/03 09:30:38;;;;;;;15.38;13.05;;;27.30;80.70;;;;;;5124724;28;20047;-54
2022/04/03 09:33:07;;;;;;;13.45;11.95;;;27.30;80.90;;;;;;5124890;28;20028;-53
2022/04/03 09:35:58;;;;;;;14.85;12.00;;;27.30;80.90;;;;;;5124481;28;20043;-59
2022/04/03 09:38:29;;;;;;;14.18;11.75;;;27.30;81.00;;;;;;5124137;28;20086;-53
2022/04/03 09:40:58;;;;;;;13.50;12.10;;;27.30;81.00;;;;;;5124403;28;20023;-55
2022/04/03 09:43:28;;;;;;;13.13;11.85;;;27.30;81.00;;;;;;5124765;28;20030;-53
2022/04/03 09:45:59;;;;;;;14.10;12.40;;;27.30;81.10;;;;;;5124453;28;20054;-50
2022/04/03 09:48:28;;;;;;;13.63;12.10;;;27.30;81.20;;;;;;5124793;28;20045;-50
2022/04/03 09:51:00;;;;;;;14.45;12.18;;;27.30;81.40;;;;;;5124248;28;20047;-52
2022/04/03 09:53:28;;;;;;;13.63;12.38;;;27.30;81.30;;;;;;5124700;28;20031;-57
2022/04/03 09:55:55;;;;;;;14.95;11.90;;;27.20;81.30;;;;;;5124240;28;20047;-54
2022/04/03 09:58:22;;;;;;;13.57;11.95;;;27.20;81.20;;;;;;5124627;28;20019;-53
2022/04/03 10:00:49;;;;;;;14.65;12.27;;;27.20;81.20;;;;;;5124215;28;20031;-53
2022/04/03 10:03:15;;;;;;;14.85;12.60;;;27.20;81.30;;;;;;5124562;28;20076;-48
2022/04/03 10:05:43;;;;;;;17.95;12.25;;;27.20;81.30;;;;;;5124015;28;20217;-56
2022/04/03 10:08:12;;;;;;;15.38;12.23;;;27.20;81.30;;;;;;5124561;28;20019;-55
2022/04/03 10:10:39;;;;;;;17.25;13.20;;;27.20;81.40;;;;;;5124151;28;20096;-54
2022/04/03 10:13:06;;;;;;;16.25;12.60;;;27.20;81.40;;;;;;5124482;28;20295;-55
2022/04/03 10:15:34;;;;;;;19.55;13.52;;;27.20;81.40;;;;;;5124107;28;20031;-53
2022/04/03 10:18:02;;;;;;;14.27;12.73;;;27.20;81.50;;;;;;5124453;28;20212;-58
2022/04/03 10:20:29;;;;;;;15.57;12.85;;;27.10;81.40;;;;;;5124027;28;20246;-55
2022/04/03 10:23:10;;;;;;;17.50;13.02;;;27.10;81.40;;;;;;5124318;28;20296;-55
2022/04/03 10:25:46;;;;;;;16.52;13.20;;;27.10;81.40;;;;;;5124013;28;20150;-59
2022/04/03 10:28:16;;;;;;;15.93;13.07;;;27.10;81.50;;;;;;5126119;28;20023;-51
2022/04/03 10:30:43;;;;;;;17.77;13.40;;;27.10;81.60;;;;;;5127978;28;20247;-52
2022/04/03 10:33:20;;;;;;;15.68;12.07;;;27.10;81.70;;;;;;5128281;28;20061;-55
2022/04/03 10:35:49;;;;;;;18.10;12.43;;;27.10;81.80;;;;;;5128076;28;20129;-57
2022/04/03 10:38:15;;;;;;;16.17;12.70;;;27.10;81.90;;;;;;5128175;28;20020;-56
2022/04/03 10:41:00;;;;;;;16.73;13.45;;;27.10;81.90;;;;;;5128109;28;20024;-52
2022/04/03 10:43:30;;;;;;;16.27;12.93;;;27.10;81.80;;;;;;5128228;28;20034;-53
2022/04/03 10:45:57;;;;;;;14.57;12.63;;;27.10;81.80;;;;;;5127887;28;20024;-52
2022/04/03 10:48:26;;;;;;;19.02;12.73;;;27.10;81.70;;;;;;5128084;28;20027;-48
2022/04/03 10:50:56;;;;;;;16.77;12.48;;;27.10;81.80;;;;;;5127489;28;20043;-52
2022/04/03 10:53:28;;;;;;;15.15;13.30;;;27.10;81.80;;;;;;5128018;28;20254;-52
2022/04/03 10:55:56;;;;;;;15.90;12.47;;;27.10;81.90;;;;;;5127507;28;20096;-55
2022/04/03 10:58:23;;;;;;;16.77;12.90;;;27.10;81.90;;;;;;5127872;28;20044;-53
2022/04/03 11:00:51;;;;;;;17.60;12.95;;;27.10;81.80;;;;;;5127562;28;20051;-52
2022/04/03 11:03:18;;;;;;;16.33;12.48;;;27.10;81.70;;;;;;5127681;28;20031;-50
2022/04/03 11:05:50;;;;;;;16.00;13.00;;;27.10;81.50;;;;;;5127327;28;20051;-54
2022/04/03 11:08:19;;;;;;;20.95;12.73;;;27.10;81.30;;;;;;5127650;28;20027;-51
2022/04/03 11:10:52;;;;;;;18.27;13.63;;;27.10;81.40;;;;;;5127165;28;20083;-53
2022/04/03 11:13:23;;;;;;;15.35;12.68;;;27.10;81.10;;;;;;5127493;28;20023;-53
2022/04/03 11:15:56;;;;;;;22.60;12.85;;;27.10;80.90;;;;;;5127107;28;20068;-49
2022/04/03 11:18:36;;;;;;;17.05;13.45;;;27.10;80.90;;;;;;5127470;28;20326;-52
2022/04/03 11:21:31;;;;;;;18.73;13.50;;;27.10;80.90;;;;;;5126940;28;20027;-51
2022/04/03 11:24:12;;;;;;;15.05;13.30;;;27.20;80.80;;;;;;5127138;28;20304;-52
2022/04/03 11:26:41;;;;;;;20.13;13.10;;;27.20;80.80;;;;;;5127039;28;20079;-56
2022/04/03 11:29:10;;;;;;;16.52;13.18;;;27.20;80.70;;;;;;5127276;28;20020;-56
2022/04/03 11:31:40;;;;;;;13.45;12.10;;;27.20;80.50;;;;;;5126907;28;20084;-54
2022/04/03 11:34:08;;;;;;;13.88;12.48;;;27.30;80.20;;;;;;5126592;28;20073;-54
2022/04/03 11:36:34;;;;;;;14.75;11.95;;;27.20;80.10;;;;;;5126643;28;20031;-56
2022/04/03 11:39:05;;;;;;;13.98;11.00;;;27.30;79.90;;;;;;5126100;28;20023;-54
2022/04/03 11:41:37;;;;;;;13.10;11.70;;;27.30;79.70;;;;;;5126805;28;20373;-54
2022/04/03 11:44:12;;;;;;;15.38;11.23;;;27.30;79.70;;;;;;5126673;28;20027;-51
2022/04/03 11:46:44;;;;;;;14.18;11.25;;;27.30;79.60;;;;;;5126485;28;20029;-55
2022/04/03 11:49:15;;;;;;;12.45;10.82;;;27.40;79.70;;;;;;5126391;28;20363;-52
2022/04/03 11:51:42;;;;;;;12.60;10.90;;;27.40;79.90;;;;;;5126611;28;20031;-51
2022/04/03 11:54:09;;;;;;;13.85;10.90;;;27.40;80.10;;;;;;5126337;28;20024;-58
2022/04/03 11:56:37;;;;;;;13.23;10.57;;;27.50;80.10;;;;;;5126310;28;20023;-55
2022/04/03 11:59:08;;;;;;;13.75;10.15;;;27.50;80.00;;;;;;5126290;28;20020;-55
2022/04/03 12:01:36;;;;;;;17.45;10.80;;;27.50;80.00;;;;;;5126081;28;20345;-54
2022/04/03 12:04:08;;;;;;;14.85;11.02;;;27.50;79.90;;;;;;5126169;28;20026;-52
2022/04/03 12:06:35;;;;;;;;;;;27.60;80.00;;;;;;5126602;28;20258;-52
2022/04/03 12:09:09;;;;;;;15.02;10.77;;;27.60;80.00;;;;;;5126022;28;19974;-55
2022/04/03 12:11:37;;;;;;;18.27;11.43;;;27.60;80.00;;;;;;5126028;28;20030;-53
2022/04/03 12:14:06;;;;;;;12.05;10.13;;;27.60;80.10;;;;;;5126290;28;20024;-53
2022/04/03 12:16:38;;;;;;;13.00;10.50;;;27.60;79.90;;;;;;5125989;28;20068;-55
2022/04/03 12:19:09;;;;;;;12.93;10.95;;;27.60;79.70;;;;;;5125876;28;20028;-55
2022/04/03 12:21:57;;;;;;;11.98;10.40;;;27.60;79.70;;;;;;5125547;28;20031;-55
2022/04/03 12:24:28;;;;;;;12.00;10.15;;;27.60;79.60;;;;;;5125776;28;20027;-49
2022/04/03 12:27:01;;;;;;;13.00;10.07;;;27.60;79.60;;;;;;5125740;28;20065;-53
2022/04/03 12:29:31;;;;;;;11.85;10.45;;;27.60;79.60;;;;;;5125975;28;20042;-53
2022/04/03 12:32:07;;;;;;;11.90;10.65;;;27.70;79.70;;;;;;5125648;28;20030;-52
2022/04/03 12:34:37;;;;;;;11.75;10.45;;;27.60;79.50;;;;;;5125658;28;20019;-53
2022/04/03 12:37:05;;;;;;;15.43;10.45;;;27.70;79.70;;;;;;5125681;28;20023;-51